sensor_id;sensor_type;location;lat;lon;timestamp;pressure;altitude;pressure_sealevel;temperature;humidity
71915;BME280;60387;49.994;14.660;2023-02-12T00:02:02;99322.44;;;8.84;55.71
71915;BME280;60387;49.994;14.660;2023-02-12T00:04:36;99315.91;;;8.80;56.09
71915;BME280;60387;49.994;14.660;2023-02-12T00:07:09;99309.84;;;8.73;56.64
71915;BME280;60387;49.994;14.660;2023-02-12T00:09:43;99327.22;;;8.77;56.21
71915;BME280;60387;49.994;14.660;2023-02-12T00:12:16;99324.50;;;8.77;56.53
71915;BME280;60387;49.994;14.660;2023-02-12T00:14:49;99320.66;;;8.73;57.13
71915;BME280;60387;49.994;14.660;2023-02-12T00:17:23;99317.91;;;8.68;56.85
71915;BME280;60387;49.994;14.660;2023-02-12T00:19:56;99315.13;;;8.63;56.70
71915;BME280;60387;49.994;14.660;2023-02-12T00:22:29;99329.53;;;8.69;56.62
71915;BME280;60387;49.994;14.660;2023-02-12T00:25:03;99328.72;;;8.68;57.06
71915;BME280;60387;49.994;14.660;2023-02-12T00:27:37;99320.06;;;8.66;56.91
71915;BME280;60387;49.994;14.660;2023-02-12T00:30:11;99329.22;;;8.65;57.05
71915;BME280;60387;49.994;14.660;2023-02-12T00:32:44;99324.38;;;8.67;57.21
71915;BME280;60387;49.994;14.660;2023-02-12T00:35:18;99330.28;;;8.64;57.33
71915;BME280;60387;49.994;14.660;2023-02-12T00:37:51;99335.09;;;8.62;56.71
71915;BME280;60387;49.994;14.660;2023-02-12T00:40:24;99344.03;;;8.63;56.75
71915;BME280;60387;49.994;14.660;2023-02-12T00:42:58;99344.84;;;8.63;56.64
71915;BME280;60387;49.994;14.660;2023-02-12T00:45:31;99348.63;;;8.62;56.11
71915;BME280;60387;49.994;14.660;2023-02-12T00:48:04;99348.06;;;8.60;56.39
71915;BME280;60387;49.994;14.660;2023-02-12T00:50:38;99358.34;;;8.63;56.12
71915;BME280;60387;49.994;14.660;2023-02-12T00:53:11;99354.56;;;8.64;56.16
71915;BME280;60387;49.994;14.660;2023-02-12T00:55:45;99345.44;;;8.65;55.80
71915;BME280;60387;49.994;14.660;2023-02-12T00:58:18;99354.91;;;8.68;55.81
71915;BME280;60387;49.994;14.660;2023-02-12T01:00:52;99350.31;;;8.68;55.65
71915;BME280;60387;49.994;14.660;2023-02-12T01:03:26;99355.72;;;8.68;55.73
71915;BME280;60387;49.994;14.660;2023-02-12T01:05:59;99358.19;;;8.70;55.50
71915;BME280;60387;49.994;14.660;2023-02-12T01:08:32;99350.00;;;8.65;55.48
71915;BME280;60387;49.994;14.660;2023-02-12T01:11:05;99347.22;;;8.60;55.62
71915;BME280;60387;49.994;14.660;2023-02-12T01:13:39;99357.28;;;8.64;55.38
71915;BME280;60387;49.994;14.660;2023-02-12T01:16:18;99364.34;;;8.65;55.65
71915;BME280;60387;49.994;14.660;2023-02-12T01:18:54;99368.09;;;8.64;55.41
71915;BME280;60387;49.994;14.660;2023-02-12T01:21:29;99364.34;;;8.65;55.56
71915;BME280;60387;49.994;14.660;2023-02-12T01:24:03;99365.38;;;8.64;55.22
71915;BME280;60387;49.994;14.660;2023-02-12T01:26:36;99354.84;;;8.63;54.96
71915;BME280;60387;49.994;14.660;2023-02-12T01:29:10;99353.78;;;8.64;55.31
71915;BME280;60387;49.994;14.660;2023-02-12T01:31:43;99360.50;;;8.61;55.38
71915;BME280;60387;49.994;14.660;2023-02-12T01:34:16;99360.50;;;8.61;55.37
71915;BME280;60387;49.994;14.660;2023-02-12T01:36:50;99358.34;;;8.63;55.24
71915;BME280;60387;49.994;14.660;2023-02-12T01:39:23;99365.38;;;8.64;55.33
71915;BME280;60387;49.994;14.660;2023-02-12T01:41:56;99361.06;;;8.63;55.44
71915;BME280;60387;49.994;14.660;2023-02-12T01:44:31;99368.34;;;8.63;55.17
71915;BME280;60387;49.994;14.660;2023-02-12T01:47:05;99370.00;;;8.64;55.57
71915;BME280;60387;49.994;14.660;2023-02-12T01:49:41;99368.34;;;8.63;54.95
71915;BME280;60387;49.994;14.660;2023-02-12T01:52:19;99373.50;;;8.64;55.44
71915;BME280;60387;49.994;14.660;2023-02-12T01:54:59;99372.69;;;8.64;55.39
71915;BME280;60387;49.994;14.660;2023-02-12T01:57:38;99369.16;;;8.63;55.02
71915;BME280;60387;49.994;14.660;2023-02-12T02:00:15;99381.59;;;8.64;54.95
71915;BME280;60387;49.994;14.660;2023-02-12T02:02:53;99377.03;;;8.65;55.91
71915;BME280;60387;49.994;14.660;2023-02-12T02:05:46;99381.59;;;8.64;55.53
71915;BME280;60387;49.994;14.660;2023-02-12T02:08:22;99386.44;;;8.62;55.55
71915;BME280;60387;49.994;14.660;2023-02-12T02:10:55;99384.56;;;8.63;55.03
71915;BME280;60387;49.994;14.660;2023-02-12T02:13:29;99383.16;;;8.60;54.94
71915;BME280;60387;49.994;14.660;2023-02-12T02:16:12;99385.13;;;8.65;55.79
71915;BME280;60387;49.994;14.660;2023-02-12T02:18:53;99379.72;;;8.65;55.36
71915;BME280;60387;49.994;14.660;2023-02-12T02:27:38;99382.41;;;8.65;55.30
71915;BME280;60387;49.994;14.660;2023-02-12T02:33:27;99388.38;;;8.67;55.38
71915;BME280;60387;49.994;14.660;2023-02-12T02:36:29;99393.56;;;8.68;55.98
71915;BME280;60387;49.994;14.660;2023-02-12T02:39:12;99385.34;;;8.63;55.38
71915;BME280;60387;49.994;14.660;2023-02-12T02:44:54;99393.66;;;8.57;55.37
71915;BME280;60387;49.994;14.660;2023-02-12T02:47:36;99395.50;;;8.56;55.66
71915;BME280;60387;49.994;14.660;2023-02-12T02:50:14;99395.28;;;8.58;55.51
71915;BME280;60387;49.994;14.660;2023-02-12T02:52:52;99393.09;;;8.55;55.66
71915;BME280;60387;49.994;14.660;2023-02-12T02:55:31;99385.22;;;8.53;55.38
71915;BME280;60387;49.994;14.660;2023-02-12T02:58:11;99384.56;;;8.63;55.65
71915;BME280;60387;49.994;14.660;2023-02-12T03:00:56;99382.66;;;8.63;55.21
71915;BME280;60387;49.994;14.660;2023-02-12T03:03:35;99389.69;;;8.64;55.40
71915;BME280;60387;49.994;14.660;2023-02-12T03:06:39;99394.53;;;8.62;55.33
71915;BME280;60387;49.994;14.660;2023-02-12T03:09:17;99387.50;;;8.61;55.65
71915;BME280;60387;49.994;14.660;2023-02-12T03:11:55;99401.25;;;8.60;55.17
71915;BME280;60387;49.994;14.660;2023-02-12T03:14:33;99395.50;;;8.56;55.15
71915;BME280;60387;49.994;14.660;2023-02-12T03:17:21;99405.84;;;8.59;55.29
71915;BME280;60387;49.994;14.660;2023-02-12T03:20:02;99415.00;;;8.58;55.61
71915;BME280;60387;49.994;14.660;2023-02-12T03:22:39;99413.94;;;8.59;55.42
71915;BME280;60387;49.994;14.660;2023-02-12T03:25:43;99415.81;;;8.59;55.13
71915;BME280;60387;49.994;14.660;2023-02-12T03:28:30;99418.50;;;8.59;55.60
71915;BME280;60387;49.994;14.660;2023-02-12T03:31:11;99410.41;;;8.59;55.26
71915;BME280;60387;49.994;14.660;2023-02-12T03:33:54;99413.72;;;8.61;55.21
71915;BME280;60387;49.994;14.660;2023-02-12T03:36:51;99409.09;;;8.61;55.03
71915;BME280;60387;49.994;14.660;2023-02-12T03:39:34;99418.84;;;8.62;55.48
71915;BME280;60387;49.994;14.660;2023-02-12T03:44:57;99427.44;;;8.59;55.28
71915;BME280;60387;49.994;14.660;2023-02-12T03:47:43;99429.31;;;8.59;55.22
71915;BME280;60387;49.994;14.660;2023-02-12T03:50:29;99436.94;;;8.62;54.89
71915;BME280;60387;49.994;14.660;2023-02-12T03:53:05;99426.88;;;8.57;55.13
71915;BME280;60387;49.994;14.660;2023-02-12T03:55:41;99442.34;;;8.62;55.42
71915;BME280;60387;49.994;14.660;2023-02-12T03:58:20;99433.09;;;8.58;55.24
71915;BME280;60387;49.994;14.660;2023-02-12T04:00:55;99442.03;;;8.58;55.49
71915;BME280;60387;49.994;14.660;2023-02-12T04:03:30;99446.25;;;8.54;55.22
71915;BME280;60387;49.994;14.660;2023-02-12T04:06:04;99451.66;;;8.54;55.26
71915;BME280;60387;49.994;14.660;2023-02-12T04:08:37;99439.22;;;8.53;55.23
71915;BME280;60387;49.994;14.660;2023-02-12T04:14:48;99460.84;;;8.53;55.65
71915;BME280;60387;49.994;14.660;2023-02-12T04:17:47;99462.97;;;8.51;55.66
71915;BME280;60387;49.994;14.660;2023-02-12T04:32:37;99479.84;;;8.58;55.55
71915;BME280;60387;49.994;14.660;2023-02-12T04:35:24;99481.47;;;8.59;55.68
71915;BME280;60387;49.994;14.660;2023-02-12T04:38:08;99485.81;;;8.60;55.35
71915;BME280;60387;49.994;14.660;2023-02-12T04:40:43;99484.63;;;8.56;55.29
71915;BME280;60387;49.994;14.660;2023-02-12T04:43:27;99476.88;;;8.60;55.61
71915;BME280;60387;49.994;14.660;2023-02-12T04:46:02;99484.63;;;8.56;55.15
71915;BME280;60387;49.994;14.660;2023-02-12T04:48:51;99491.44;;;8.59;55.19
71915;BME280;60387;49.994;14.660;2023-02-12T04:51:25;99492.50;;;8.58;55.46
71915;BME280;60387;49.994;14.660;2023-02-12T04:53:58;99494.41;;;8.57;55.47
71915;BME280;60387;49.994;14.660;2023-02-12T04:56:32;99492.44;;;8.53;55.33
71915;BME280;60387;49.994;14.660;2023-02-12T04:59:05;99493.25;;;8.53;55.64
71915;BME280;60387;49.994;14.660;2023-02-12T05:01:39;99497.50;;;8.49;56.44
71915;BME280;60387;49.994;14.660;2023-02-12T05:04:14;99496.34;;;8.45;55.67
71915;BME280;60387;49.994;14.660;2023-02-12T05:06:48;99498.72;;;8.42;55.74
71915;BME280;60387;49.994;14.660;2023-02-12T05:09:21;99506.00;;;8.41;56.28
71915;BME280;60387;49.994;14.660;2023-02-12T05:11:55;99507.66;;;8.42;55.86
71915;BME280;60387;49.994;14.660;2023-02-12T05:14:28;99509.78;;;8.40;56.41
71915;BME280;60387;49.994;14.660;2023-02-12T05:17:01;99511.06;;;8.38;56.16
71915;BME280;60387;49.994;14.660;2023-02-12T05:19:35;99501.56;;;8.35;56.00
71915;BME280;60387;49.994;14.660;2023-02-12T05:22:08;99506.25;;;8.40;56.52
71915;BME280;60387;49.994;14.660;2023-02-12T05:24:41;99505.69;;;8.38;57.03
71915;BME280;60387;49.994;14.660;2023-02-12T05:27:14;99518.59;;;8.36;56.19
71915;BME280;60387;49.994;14.660;2023-02-12T05:29:48;99522.09;;;8.36;56.57
71915;BME280;60387;49.994;14.660;2023-02-12T05:32:22;99524.00;;;8.36;56.52
71915;BME280;60387;49.994;14.660;2023-02-12T05:34:56;99523.41;;;8.34;56.18
71915;BME280;60387;49.994;14.660;2023-02-12T05:37:29;99525.78;;;8.30;56.64
71915;BME280;60387;49.994;14.660;2023-02-12T05:40:04;99521.94;;;8.26;56.33
71915;BME280;60387;49.994;14.660;2023-02-12T05:42:38;99534.59;;;8.26;55.89
71915;BME280;60387;49.994;14.660;2023-02-12T05:45:11;99537.78;;;8.23;56.29
71915;BME280;60387;49.994;14.660;2023-02-12T05:47:44;99535.78;;;8.18;56.00
71915;BME280;60387;49.994;14.660;2023-02-12T05:50:18;99532.06;;;8.19;55.84
71915;BME280;60387;49.994;14.660;2023-02-12T05:52:51;99544.50;;;8.20;56.23
71915;BME280;60387;49.994;14.660;2023-02-12T05:55:25;99541.78;;;8.20;56.00
71915;BME280;60387;49.994;14.660;2023-02-12T05:57:58;99547.31;;;8.14;56.08
71915;BME280;60387;49.994;14.660;2023-02-12T06:00:31;99546.00;;;8.16;55.95
71915;BME280;60387;49.994;14.660;2023-02-12T06:03:04;99547.66;;;8.17;56.18
71915;BME280;60387;49.994;14.660;2023-02-12T06:05:38;99549.78;;;8.15;55.92
71915;BME280;60387;49.994;14.660;2023-02-12T06:08:11;99548.38;;;8.13;56.36
71915;BME280;60387;49.994;14.660;2023-02-12T06:10:44;99555.06;;;8.10;56.66
71915;BME280;60387;49.994;14.660;2023-02-12T06:13:18;99545.22;;;8.04;56.27
71915;BME280;60387;49.994;14.660;2023-02-12T06:15:51;99552.16;;;8.00;56.40
71915;BME280;60387;49.994;14.660;2023-02-12T06:18:25;99564.59;;;8.01;56.18
71915;BME280;60387;49.994;14.660;2023-02-12T06:20:58;99560.50;;;7.99;56.09
71915;BME280;60387;49.994;14.660;2023-02-12T06:23:31;99563.19;;;7.99;56.02
71915;BME280;60387;49.994;14.660;2023-02-12T06:26:05;99571.88;;;8.01;55.85
71915;BME280;60387;49.994;14.660;2023-02-12T06:28:38;99576.13;;;7.97;58.16
71915;BME280;60387;49.994;14.660;2023-02-12T06:31:32;99581.66;;;7.90;57.36
71915;BME280;60387;49.994;14.660;2023-02-12T06:34:07;99581.53;;;7.85;56.86
71915;BME280;60387;49.994;14.660;2023-02-12T06:36:42;99591.19;;;7.81;56.84
71915;BME280;60387;49.994;14.660;2023-02-12T06:39:16;99586.25;;;7.78;56.60
71915;BME280;60387;49.994;14.660;2023-02-12T06:41:49;99602.44;;;7.78;56.60
71915;BME280;60387;49.994;14.660;2023-02-12T06:44:23;99593.28;;;7.79;56.70
71915;BME280;60387;49.994;14.660;2023-02-12T06:46:56;99593.28;;;7.79;56.49
71915;BME280;60387;49.994;14.660;2023-02-12T06:49:29;99601.47;;;7.84;56.81
71915;BME280;60387;49.994;14.660;2023-02-12T06:52:03;99605.25;;;7.83;57.26
71915;BME280;60387;49.994;14.660;2023-02-12T06:54:36;99604.66;;;7.81;56.58
71915;BME280;60387;49.994;14.660;2023-02-12T06:57:10;99600.91;;;7.82;56.74
71915;BME280;60387;49.994;14.660;2023-02-12T06:59:43;99603.59;;;7.82;56.89
71915;BME280;60387;49.994;14.660;2023-02-12T07:02:16;99609.81;;;7.83;56.69
71915;BME280;60387;49.994;14.660;2023-02-12T07:04:50;99608.50;;;7.85;56.82
71915;BME280;60387;49.994;14.660;2023-02-12T07:07:23;99608.88;;;7.89;56.57
71915;BME280;60387;49.994;14.660;2023-02-12T07:09:56;99603.47;;;7.89;56.56
71915;BME280;60387;49.994;14.660;2023-02-12T07:12:32;99623.28;;;7.94;56.40
71915;BME280;60387;49.994;14.660;2023-02-12T07:15:05;99611.53;;;8.00;56.74
71915;BME280;60387;49.994;14.660;2023-02-12T07:17:39;99617.06;;;8.05;56.39
71915;BME280;60387;49.994;14.660;2023-02-12T07:20:12;99625.81;;;8.12;56.36
71915;BME280;60387;49.994;14.660;2023-02-12T07:22:46;99625.34;;;8.15;56.49
71915;BME280;60387;49.994;14.660;2023-02-12T07:25:19;99624.88;;;8.18;56.17
71915;BME280;60387;49.994;14.660;2023-02-12T07:27:52;99637.69;;;8.23;56.71
71915;BME280;60387;49.994;14.660;2023-02-12T07:30:26;99627.38;;;8.20;57.65
71915;BME280;60387;49.994;14.660;2023-02-12T07:32:59;99631.94;;;8.19;57.01
71915;BME280;60387;49.994;14.660;2023-02-12T07:35:32;99633.09;;;8.23;56.88
71915;BME280;60387;49.994;14.660;2023-02-12T07:38:05;99635.19;;;8.21;56.75
71915;BME280;60387;49.994;14.660;2023-02-12T07:40:39;99629.91;;;8.26;57.36
71915;BME280;60387;49.994;14.660;2023-02-12T07:43:12;99633.31;;;8.33;57.62
71915;BME280;60387;49.994;14.660;2023-02-12T07:45:45;99644.88;;;8.45;57.98
71915;BME280;60387;49.994;14.660;2023-02-12T07:48:19;99640.25;;;8.57;57.42
71915;BME280;60387;49.994;14.660;2023-02-12T07:50:52;99639.88;;;8.65;57.21
71915;BME280;60387;49.994;14.660;2023-02-12T07:53:25;99648.72;;;8.77;57.42
71915;BME280;60387;49.994;14.660;2023-02-12T07:58:40;99649.81;;;8.93;56.65
71915;BME280;60387;49.994;14.660;2023-02-12T08:03:52;99656.31;;;9.08;56.74
71915;BME280;60387;49.994;14.660;2023-02-12T08:06:28;99655.91;;;9.16;56.51
71915;BME280;60387;49.994;14.660;2023-02-12T08:09:03;99653.84;;;9.23;56.29
71915;BME280;60387;49.994;14.660;2023-02-12T08:11:37;99656.41;;;9.30;56.24
71915;BME280;60387;49.994;14.660;2023-02-12T08:14:13;99658.38;;;9.34;55.95
71915;BME280;60387;49.994;14.660;2023-02-12T08:16:48;99666.09;;;9.42;56.27
71915;BME280;60387;49.994;14.660;2023-02-12T08:19:22;99665.91;;;9.48;56.21
71915;BME280;60387;49.994;14.660;2023-02-12T08:21:55;99675.75;;;9.54;56.15
71915;BME280;60387;49.994;14.660;2023-02-12T08:24:29;99676.66;;;9.60;56.23
71915;BME280;60387;49.994;14.660;2023-02-12T08:27:04;99683.53;;;9.67;56.37
71915;BME280;60387;49.994;14.660;2023-02-12T08:29:37;99678.19;;;9.72;56.72
71915;BME280;60387;49.994;14.660;2023-02-12T08:32:10;99673.09;;;9.76;56.48
71915;BME280;60387;49.994;14.660;2023-02-12T08:34:43;99684.56;;;9.83;56.86
71915;BME280;60387;49.994;14.660;2023-02-12T08:37:17;99673.56;;;9.89;56.68
71915;BME280;60387;49.994;14.660;2023-02-12T08:39:50;99670.91;;;9.94;56.39
71915;BME280;60387;49.994;14.660;2023-02-12T08:42:23;99675.09;;;10.02;56.48
71915;BME280;60387;49.994;14.660;2023-02-12T08:44:57;99684.72;;;10.09;56.12
71915;BME280;60387;49.994;14.660;2023-02-12T08:47:30;99674.19;;;10.13;56.29
71915;BME280;60387;49.994;14.660;2023-02-12T08:50:03;99684.91;;;10.24;56.26
71915;BME280;60387;49.994;14.660;2023-02-12T08:52:37;99680.91;;;10.27;56.45
71915;BME280;60387;49.994;14.660;2023-02-12T08:55:10;99694.47;;;10.32;56.33
71915;BME280;60387;49.994;14.660;2023-02-12T08:57:43;99693.47;;;10.38;56.16
71915;BME280;60387;49.994;14.660;2023-02-12T09:00:17;99698.47;;;10.46;56.27
71915;BME280;60387;49.994;14.660;2023-02-12T09:02:51;99690.97;;;10.53;56.11
71915;BME280;60387;49.994;14.660;2023-02-12T09:05:24;99692.09;;;10.57;55.65
71915;BME280;60387;49.994;14.660;2023-02-12T09:07:57;99692.47;;;10.65;56.29
71915;BME280;60387;49.994;14.660;2023-02-12T09:10:30;99701.47;;;10.71;56.38
71915;BME280;60387;49.994;14.660;2023-02-12T09:13:04;99710.72;;;10.75;55.74
71915;BME280;60387;49.994;14.660;2023-02-12T09:15:42;99716.97;;;10.75;56.32
71915;BME280;60387;49.994;14.660;2023-02-12T09:18:15;99721.88;;;10.78;56.20
71915;BME280;60387;49.994;14.660;2023-02-12T09:20:49;99718.09;;;10.79;56.03
71915;BME280;60387;49.994;14.660;2023-02-12T09:23:22;99718.66;;;10.81;56.34
71915;BME280;60387;49.994;14.660;2023-02-12T09:25:55;99719.84;;;10.90;56.61
71915;BME280;60387;49.994;14.660;2023-02-12T09:28:29;99723.47;;;11.01;56.37
71915;BME280;60387;49.994;14.660;2023-02-12T09:31:12;99726.81;;;11.08;56.56
71915;BME280;60387;49.994;14.660;2023-02-12T09:33:46;99730.91;;;11.10;56.66
71915;BME280;60387;49.994;14.660;2023-02-12T09:36:19;99744.72;;;11.09;56.04
71915;BME280;60387;49.994;14.660;2023-02-12T09:38:52;99743.09;;;11.08;56.35
71915;BME280;60387;49.994;14.660;2023-02-12T09:46:38;99752.78;;;11.25;56.03
71915;BME280;60387;49.994;14.660;2023-02-12T09:49:25;99755.28;;;11.32;56.06
71915;BME280;60387;49.994;14.660;2023-02-12T09:52:05;99742.34;;;11.39;55.81
71915;BME280;60387;49.994;14.660;2023-02-12T09:54:45;99756.53;;;11.51;55.74
71915;BME280;60387;49.994;14.660;2023-02-12T09:59:57;99756.16;;;11.64;55.70
71915;BME280;60387;49.994;14.660;2023-02-12T10:02:37;99761.63;;;11.69;55.11
71915;BME280;60387;49.994;14.660;2023-02-12T10:05:16;99742.91;;;11.72;55.37
71915;BME280;60387;49.994;14.660;2023-02-12T10:19:05;99763.88;;;11.77;55.21
71915;BME280;60387;49.994;14.660;2023-02-12T10:27:26;99764.41;;;11.79;54.87
71915;BME280;60387;49.994;14.660;2023-02-12T10:30:18;99757.13;;;11.84;54.84
71915;BME280;60387;49.994;14.660;2023-02-12T10:33:02;99750.34;;;11.82;55.06
71915;BME280;60387;49.994;14.660;2023-02-12T10:35:43;99753.06;;;11.87;55.26
71915;BME280;60387;49.994;14.660;2023-02-12T10:38:24;99763.75;;;11.93;54.79
71915;BME280;60387;49.994;14.660;2023-02-12T10:40:59;99751.78;;;11.94;55.11
71915;BME280;60387;49.994;14.660;2023-02-12T10:43:33;99749.44;;;12.08;54.97
71915;BME280;60387;49.994;14.660;2023-02-12T10:46:15;99755.19;;;12.16;54.84
71915;BME280;60387;49.994;14.660;2023-02-12T10:48:51;99750.84;;;12.15;54.54
71915;BME280;60387;49.994;14.660;2023-02-12T10:57:29;99742.00;;;12.35;54.73
71915;BME280;60387;49.994;14.660;2023-02-12T11:00:22;99743.69;;;12.46;54.46
71915;BME280;60387;49.994;14.660;2023-02-12T11:03:21;99735.81;;;12.49;54.22
71915;BME280;60387;49.994;14.660;2023-02-12T11:05:54;99745.34;;;12.52;54.24
71915;BME280;60387;49.994;14.660;2023-02-12T11:11:27;99750.88;;;12.67;54.40
71915;BME280;60387;49.994;14.660;2023-02-12T11:14:06;99742.22;;;12.79;54.42
71915;BME280;60387;49.994;14.660;2023-02-12T11:16:56;99742.53;;;12.88;53.67
71915;BME280;60387;49.994;14.660;2023-02-12T11:19:31;99739.31;;;12.96;53.63
71915;BME280;60387;49.994;14.660;2023-02-12T11:22:11;99746.38;;;13.02;53.74
71915;BME280;60387;49.994;14.660;2023-02-12T11:24:45;99742.88;;;13.06;53.45
71915;BME280;60387;49.994;14.660;2023-02-12T11:27:31;99757.59;;;13.10;53.60
71915;BME280;60387;49.994;14.660;2023-02-12T11:30:18;99746.16;;;13.13;52.73
71915;BME280;60387;49.994;14.660;2023-02-12T11:32:52;99744.50;;;13.07;53.30
71915;BME280;60387;49.994;14.660;2023-02-12T11:35:26;99739.06;;;13.07;53.32
71915;BME280;60387;49.994;14.660;2023-02-12T11:37:59;99745.91;;;13.15;53.21
71915;BME280;60387;49.994;14.660;2023-02-12T11:40:32;99746.97;;;13.19;53.42
71915;BME280;60387;49.994;14.660;2023-02-12T11:43:07;99749.19;;;13.27;53.26
71915;BME280;60387;49.994;14.660;2023-02-12T11:45:43;99748.13;;;13.33;53.54
71915;BME280;60387;49.994;14.660;2023-02-12T11:48:29;99748.94;;;13.43;53.23
71915;BME280;60387;49.994;14.660;2023-02-12T11:51:07;99751.16;;;13.51;53.41
71915;BME280;60387;49.994;14.660;2023-02-12T11:53:42;99747.59;;;13.56;52.78
71915;BME280;60387;49.994;14.660;2023-02-12T11:56:19;99739.41;;;13.61;52.73
71915;BME280;60387;49.994;14.660;2023-02-12T11:58:53;99741.88;;;13.62;52.67
71915;BME280;60387;49.994;14.660;2023-02-12T12:01:41;99737.53;;;13.61;52.32
71915;BME280;60387;49.994;14.660;2023-02-12T12:04:16;99730.44;;;13.60;52.12
71915;BME280;60387;49.994;14.660;2023-02-12T12:06:55;99734.81;;;13.61;52.29
71915;BME280;60387;49.994;14.660;2023-02-12T12:09:45;99737.81;;;13.65;52.39
71915;BME280;60387;49.994;14.660;2023-02-12T12:15:06;99740.53;;;13.65;52.55
71915;BME280;60387;49.994;14.660;2023-02-12T12:17:50;99733.69;;;13.67;52.07
71915;BME280;60387;49.994;14.660;2023-02-12T12:20:29;99723.63;;;13.63;52.17
71915;BME280;60387;49.994;14.660;2023-02-12T12:23:13;99732.06;;;13.66;52.22
71915;BME280;60387;49.994;14.660;2023-02-12T12:25:51;99728.53;;;13.71;52.26
71915;BME280;60387;49.994;14.660;2023-02-12T12:28:35;99733.72;;;13.77;52.31
71915;BME280;60387;49.994;14.660;2023-02-12T12:34:00;99728.81;;;13.94;52.13
71915;BME280;60387;49.994;14.660;2023-02-12T12:42:59;99729.06;;;14.18;51.31
71915;BME280;60387;49.994;14.660;2023-02-12T12:57:12;99702.88;;;14.27;51.76
71915;BME280;60387;49.994;14.660;2023-02-12T13:03:23;99707.81;;;14.25;51.29
71915;BME280;60387;49.994;14.660;2023-02-12T13:15:08;99707.81;;;14.25;51.05
71915;BME280;60387;49.994;14.660;2023-02-12T13:18:18;99706.97;;;14.14;50.96
71915;BME280;60387;49.994;14.660;2023-02-12T13:21:39;99703.16;;;14.15;50.94
71915;BME280;60387;49.994;14.660;2023-02-12T13:24:23;99718.97;;;14.08;51.14
71915;BME280;60387;49.994;14.660;2023-02-12T13:27:05;99711.34;;;14.00;51.22
71915;BME280;60387;49.994;14.660;2023-02-12T13:29:47;99714.09;;;13.95;51.22
71915;BME280;60387;49.994;14.660;2023-02-12T13:32:25;99711.34;;;13.90;51.52
71915;BME280;60387;49.994;14.660;2023-02-12T13:35:04;99710.28;;;13.81;51.33
71915;BME280;60387;49.994;14.660;2023-02-12T13:37:42;99711.94;;;13.77;51.62
71915;BME280;60387;49.994;14.660;2023-02-12T13:40:25;99708.41;;;13.72;51.47
71915;BME280;60387;49.994;14.660;2023-02-12T13:45:54;99708.41;;;13.72;51.12
71915;BME280;60387;49.994;14.660;2023-02-12T13:48:43;99713.84;;;13.67;51.44
71915;BME280;60387;49.994;14.660;2023-02-12T13:51:35;99710.28;;;13.66;51.09
71915;BME280;60387;49.994;14.660;2023-02-12T13:54:43;99716.28;;;13.63;51.23
71915;BME280;60387;49.994;14.660;2023-02-12T13:57:20;99706.47;;;13.57;51.27
71915;BME280;60387;49.994;14.660;2023-02-12T13:59:55;99712.75;;;13.58;51.35
71915;BME280;60387;49.994;14.660;2023-02-12T14:05:14;99709.47;;;13.56;51.15
71915;BME280;60387;49.994;14.660;2023-02-12T14:07:51;99686.59;;;13.37;50.84
71915;BME280;60387;49.994;14.660;2023-02-12T14:10:40;99722.81;;;13.47;51.44
71915;BME280;60387;49.994;14.660;2023-02-12T14:13:21;99715.44;;;13.43;51.02
71915;BME280;60387;49.994;14.660;2023-02-12T14:15:56;99715.72;;;13.36;50.49
71915;BME280;60387;49.994;14.660;2023-02-12T14:18:34;99722.50;;;13.29;51.03
71915;BME280;60387;49.994;14.660;2023-02-12T14:23:42;99716.78;;;13.20;51.53
71915;BME280;60387;49.994;14.660;2023-02-12T14:26:18;99720.34;;;13.21;51.36
71915;BME280;60387;49.994;14.660;2023-02-12T14:28:59;99705.63;;;13.17;50.94
71915;BME280;60387;49.994;14.660;2023-02-12T14:31:36;99710.25;;;13.16;51.04
71915;BME280;60387;49.994;14.660;2023-02-12T14:37:10;99717.31;;;13.12;51.31
71915;BME280;60387;49.994;14.660;2023-02-12T14:39:44;99710.50;;;13.10;51.52
71915;BME280;60387;49.994;14.660;2023-02-12T14:44:59;99705.34;;;13.13;51.64
71915;BME280;60387;49.994;14.660;2023-02-12T14:50:14;99716.81;;;13.25;51.71
71915;BME280;60387;49.994;14.660;2023-02-12T14:53:03;99710.28;;;13.26;51.31
71915;BME280;60387;49.994;14.660;2023-02-12T14:55:39;99711.91;;;13.27;51.27
71915;BME280;60387;49.994;14.660;2023-02-12T14:58:19;99712.19;;;13.21;51.48
71915;BME280;60387;49.994;14.660;2023-02-12T15:00:55;99703.16;;;13.10;51.39
71915;BME280;60387;49.994;14.660;2023-02-12T15:03:39;99708.31;;;13.07;51.41
71915;BME280;60387;49.994;14.660;2023-02-12T15:06:21;99699.59;;;13.00;51.58
71915;BME280;60387;49.994;14.660;2023-02-12T15:09:00;99699.31;;;12.96;51.77
71915;BME280;60387;49.994;14.660;2023-02-12T15:11:44;99708.31;;;13.07;51.27
71915;BME280;60387;49.994;14.660;2023-02-12T15:14:23;99712.66;;;13.03;51.33
71915;BME280;60387;49.994;14.660;2023-02-12T15:17:04;99707.50;;;13.01;51.49
71915;BME280;60387;49.994;14.660;2023-02-12T15:20:03;99712.41;;;12.99;51.46
71915;BME280;60387;49.994;14.660;2023-02-12T15:22:39;99725.44;;;12.97;51.40
71915;BME280;60387;49.994;14.660;2023-02-12T15:28:10;99719.69;;;12.89;51.34
71915;BME280;60387;49.994;14.660;2023-02-12T15:30:50;99724.56;;;12.87;51.52
71915;BME280;60387;49.994;14.660;2023-02-12T15:33:33;99718.81;;;12.78;51.23
71915;BME280;60387;49.994;14.660;2023-02-12T15:36:09;99724.00;;;12.80;51.51
71915;BME280;60387;49.994;14.660;2023-02-12T15:38:50;99723.97;;;12.75;51.61
71915;BME280;60387;49.994;14.660;2023-02-12T15:44:28;99735.66;;;12.71;51.66
71915;BME280;60387;49.994;14.660;2023-02-12T15:47:08;99720.38;;;12.65;51.50
71915;BME280;60387;49.994;14.660;2023-02-12T15:49:43;99725.00;;;12.59;51.62
71915;BME280;60387;49.994;14.660;2023-02-12T15:52:19;99730.13;;;12.56;51.56
71915;BME280;60387;49.994;14.660;2023-02-12T15:54:54;99721.44;;;12.49;51.43
71915;BME280;60387;49.994;14.660;2023-02-12T15:57:27;99718.94;;;12.42;51.45